Kathryn, North Dakota
Current Conditions -  °F | °C
As of 7:35 AM on Saturday 20 Dec 2014 (Local Time) from KBAC Reporting Station
Moderate Fog Moderate Fog  
Wind Chill: 12°   Ceiling: 200
Heat Index: 23°   Visibility: 0.25mi
Dew Point: 23°   Wind: 12mph
Humidity: 100%   Direction: 180°S
Pressure: 29.98"   Gusts: NA
Location:  46.68°N, 97.97°W
Report Text: KBAC 201335Z AUTO 18010KT 1/4SM FZFG OVC002 M05/M05 A2998 RMK AO2
Loading
Personal Weather Stations






























Interactive Weather Map New forecast layout! Learn more

10-Day Weather Forecast

Advertisements
Track Severe Weather on mobile